sensor_id;sensor_type;location;lat;lon;timestamp;pressure;altitude;pressure_sealevel;temperature;humidity
23427;BME280;41148;45.420;10.952;2022-11-20T00:01:13;100054.41;;;8.61;85.00
23427;BME280;41148;45.420;10.952;2022-11-20T00:03:41;100048.28;;;8.59;85.50
23427;BME280;41148;45.420;10.952;2022-11-20T00:06:11;100054.72;;;8.50;85.31
23427;BME280;41148;45.420;10.952;2022-11-20T00:08:41;100067.13;;;8.50;85.37
23427;BME280;41148;45.420;10.952;2022-11-20T00:11:20;100062.03;;;8.42;85.69
23427;BME280;41148;45.420;10.952;2022-11-20T00:13:50;100069.31;;;8.34;85.67
23427;BME280;41148;45.420;10.952;2022-11-20T00:16:21;100062.25;;;8.35;85.41
23427;BME280;41148;45.420;10.952;2022-11-20T00:18:49;100063.81;;;8.09;85.86
23427;BME280;41148;45.420;10.952;2022-11-20T00:21:25;100062.88;;;8.12;86.24
23427;BME280;41148;45.420;10.952;2022-11-20T00:23:55;100052.28;;;8.10;85.56
23427;BME280;41148;45.420;10.952;2022-11-20T00:26:24;100054.81;;;8.15;85.38
23427;BME280;41148;45.420;10.952;2022-11-20T00:29:00;100054.91;;;8.12;85.06
23427;BME280;41148;45.420;10.952;2022-11-20T00:31:29;100070.75;;;8.15;85.20
23427;BME280;41148;45.420;10.952;2022-11-20T00:33:56;100076.16;;;8.12;84.95
23427;BME280;41148;45.420;10.952;2022-11-20T00:36:26;100067.28;;;8.13;85.48
23427;BME280;41148;45.420;10.952;2022-11-20T00:38:56;100081.47;;;8.10;86.14
23427;BME280;41148;45.420;10.952;2022-11-20T00:41:25;100089.38;;;8.13;86.10
23427;BME280;41148;45.420;10.952;2022-11-20T00:43:54;100073.59;;;8.07;84.36
23427;BME280;41148;45.420;10.952;2022-11-20T00:46:24;100072.03;;;8.00;84.79
23427;BME280;41148;45.420;10.952;2022-11-20T00:48:52;100084.81;;;7.86;84.94
23427;BME280;41148;45.420;10.952;2022-11-20T00:51:22;100092.66;;;7.89;83.77
23427;BME280;41148;45.420;10.952;2022-11-20T00:53:50;100094.69;;;7.79;84.43
23427;BME280;41148;45.420;10.952;2022-11-20T00:56:18;100081.47;;;7.78;83.96
23427;BME280;41148;45.420;10.952;2022-11-20T00:58:47;100076.13;;;7.79;82.89
23427;BME280;41148;45.420;10.952;2022-11-20T01:01:20;100086.69;;;7.81;82.42
23427;BME280;41148;45.420;10.952;2022-11-20T01:03:50;100086.63;;;7.84;81.58
23427;BME280;41148;45.420;10.952;2022-11-20T01:06:22;100094.59;;;7.84;81.61
23427;BME280;41148;45.420;10.952;2022-11-20T01:08:53;100088.59;;;7.75;82.54
23427;BME280;41148;45.420;10.952;2022-11-20T01:11:23;100083.38;;;7.72;82.38
23427;BME280;41148;45.420;10.952;2022-11-20T01:13:52;100097.53;;;7.73;82.75
23427;BME280;41148;45.420;10.952;2022-11-20T01:16:22;100092.22;;;7.73;82.84
23427;BME280;41148;45.420;10.952;2022-11-20T01:18:51;100094.91;;;7.70;82.24
23427;BME280;41148;45.420;10.952;2022-11-20T01:21:28;100083.00;;;7.54;82.34
23427;BME280;41148;45.420;10.952;2022-11-20T01:23:56;100094.66;;;7.46;83.31
23427;BME280;41148;45.420;10.952;2022-11-20T01:26:26;100085.13;;;7.38;83.36
23427;BME280;41148;45.420;10.952;2022-11-20T01:28:55;100083.22;;;7.43;83.19
23427;BME280;41148;45.420;10.952;2022-11-20T01:31:26;100073.53;;;7.43;82.45
23427;BME280;41148;45.420;10.952;2022-11-20T01:33:56;100089.38;;;7.45;82.26
23427;BME280;41148;45.420;10.952;2022-11-20T01:36:25;100089.84;;;7.61;82.27
23427;BME280;41148;45.420;10.952;2022-11-20T01:38:55;100081.03;;;7.60;81.43
23427;BME280;41148;45.420;10.952;2022-11-20T01:41:23;100092.63;;;7.56;81.52
23427;BME280;41148;45.420;10.952;2022-11-20T01:44:12;100101.50;;;7.55;82.26
23427;BME280;41148;45.420;10.952;2022-11-20T01:47:01;100104.19;;;7.54;82.91
23427;BME280;41148;45.420;10.952;2022-11-20T01:49:35;100087.66;;;7.42;82.84
23427;BME280;41148;45.420;10.952;2022-11-20T01:52:23;100108.03;;;7.40;82.92
23427;BME280;41148;45.420;10.952;2022-11-20T01:54:56;100095.56;;;7.45;82.58
23427;BME280;41148;45.420;10.952;2022-11-20T01:57:25;100102.03;;;7.32;82.86
23427;BME280;41148;45.420;10.952;2022-11-20T02:00:03;100103.72;;;7.36;83.94
23427;BME280;41148;45.420;10.952;2022-11-20T02:02:41;100095.09;;;7.28;84.17
23427;BME280;41148;45.420;10.952;2022-11-20T02:05:25;100099.44;;;7.31;83.37
23427;BME280;41148;45.420;10.952;2022-11-20T02:07:56;100102.25;;;7.25;84.19
23427;BME280;41148;45.420;10.952;2022-11-20T02:10:26;100096.03;;;7.26;83.17
23427;BME280;41148;45.420;10.952;2022-11-20T02:12:54;100084.63;;;7.22;82.46
23427;BME280;41148;45.420;10.952;2022-11-20T02:15:40;100082.94;;;7.20;82.83
23427;BME280;41148;45.420;10.952;2022-11-20T02:18:09;100095.25;;;7.21;83.29
23427;BME280;41148;45.420;10.952;2022-11-20T02:20:38;100097.81;;;7.25;83.04
23427;BME280;41148;45.420;10.952;2022-11-20T02:23:38;100098.75;;;7.23;82.44
23427;BME280;41148;45.420;10.952;2022-11-20T02:26:09;100103.38;;;7.13;81.97
23427;BME280;41148;45.420;10.952;2022-11-20T02:28:37;100092.69;;;7.17;82.42
23427;BME280;41148;45.420;10.952;2022-11-20T02:31:05;100085.78;;;7.10;82.14
23427;BME280;41148;45.420;10.952;2022-11-20T02:33:32;100095.84;;;6.96;82.69
23427;BME280;41148;45.420;10.952;2022-11-20T02:36:00;100081.63;;;7.00;83.16
23427;BME280;41148;45.420;10.952;2022-11-20T02:38:27;100081.53;;;7.05;83.28
23427;BME280;41148;45.420;10.952;2022-11-20T02:40:55;100091.09;;;7.10;82.59
23427;BME280;41148;45.420;10.952;2022-11-20T02:43:23;100102.75;;;7.02;83.15
23427;BME280;41148;45.420;10.952;2022-11-20T02:45:50;100106.28;;;7.02;84.25
23427;BME280;41148;45.420;10.952;2022-11-20T02:48:17;100100.19;;;6.99;83.71
23427;BME280;41148;45.420;10.952;2022-11-20T02:50:45;100096.69;;;6.98;83.18
23427;BME280;41148;45.420;10.952;2022-11-20T02:53:12;100098.66;;;6.88;83.79
23427;BME280;41148;45.420;10.952;2022-11-20T02:55:40;100104.91;;;6.84;83.30
23427;BME280;41148;45.420;10.952;2022-11-20T02:58:07;100095.94;;;6.92;82.89
23427;BME280;41148;45.420;10.952;2022-11-20T03:00:35;100095.84;;;6.95;83.24
23427;BME280;41148;45.420;10.952;2022-11-20T03:03:02;100102.00;;;6.97;83.01
23427;BME280;41148;45.420;10.952;2022-11-20T03:05:30;100101.03;;;7.01;82.86
23427;BME280;41148;45.420;10.952;2022-11-20T03:07:57;100096.25;;;6.78;82.79
23427;BME280;41148;45.420;10.952;2022-11-20T03:10:24;100104.09;;;6.82;83.57
23427;BME280;41148;45.420;10.952;2022-11-20T03:12:55;100103.25;;;6.80;84.33
23427;BME280;41148;45.420;10.952;2022-11-20T03:15:23;100105.84;;;6.82;82.58
23427;BME280;41148;45.420;10.952;2022-11-20T03:17:54;100097.88;;;6.83;81.70
23427;BME280;41148;45.420;10.952;2022-11-20T03:20:23;100098.66;;;6.88;81.46
23427;BME280;41148;45.420;10.952;2022-11-20T03:22:50;100102.09;;;6.92;80.96
23427;BME280;41148;45.420;10.952;2022-11-20T03:25:18;100089.69;;;6.94;80.08
23427;BME280;41148;45.420;10.952;2022-11-20T03:27:45;100111.94;;;6.87;79.12
23427;BME280;41148;45.420;10.952;2022-11-20T03:30:13;100117.13;;;6.92;79.03
23427;BME280;41148;45.420;10.952;2022-11-20T03:32:41;100097.50;;;7.00;78.74
23427;BME280;41148;45.420;10.952;2022-11-20T03:35:09;100093.00;;;7.04;79.04
23427;BME280;41148;45.420;10.952;2022-11-20T03:37:36;100109.00;;;6.99;79.28
23427;BME280;41148;45.420;10.952;2022-11-20T03:40:05;100109.09;;;6.95;78.68
23427;BME280;41148;45.420;10.952;2022-11-20T03:42:32;100105.91;;;6.80;78.04
23427;BME280;41148;45.420;10.952;2022-11-20T03:45:13;100102.97;;;6.93;77.68
23427;BME280;41148;45.420;10.952;2022-11-20T03:47:42;100116.38;;;6.85;76.57
23427;BME280;41148;45.420;10.952;2022-11-20T03:50:11;100120.13;;;6.75;77.26
23427;BME280;41148;45.420;10.952;2022-11-20T03:52:40;100118.84;;;6.93;76.54
23427;BME280;41148;45.420;10.952;2022-11-20T03:55:09;100124.28;;;6.88;75.53
23427;BME280;41148;45.420;10.952;2022-11-20T03:57:36;100128.47;;;6.98;76.39
23427;BME280;41148;45.420;10.952;2022-11-20T04:00:05;100136.38;;;7.00;76.76
23427;BME280;41148;45.420;10.952;2022-11-20T04:02:33;100128.53;;;6.94;77.15
23427;BME280;41148;45.420;10.952;2022-11-20T04:05:18;100139.75;;;7.06;76.66
23427;BME280;41148;45.420;10.952;2022-11-20T04:07:46;100143.75;;;6.85;78.43
23427;BME280;41148;45.420;10.952;2022-11-20T04:10:13;100147.19;;;6.89;79.13
23427;BME280;41148;45.420;10.952;2022-11-20T04:12:41;100162.94;;;6.97;79.97
23427;BME280;41148;45.420;10.952;2022-11-20T04:15:08;100161.19;;;6.96;78.71
23427;BME280;41148;45.420;10.952;2022-11-20T04:17:36;100159.13;;;6.68;80.69
23427;BME280;41148;45.420;10.952;2022-11-20T04:20:04;100148.44;;;6.71;80.73
23427;BME280;41148;45.420;10.952;2022-11-20T04:22:32;100149.25;;;6.76;81.18
23427;BME280;41148;45.420;10.952;2022-11-20T04:24:59;100147.66;;;6.68;81.30
23427;BME280;41148;45.420;10.952;2022-11-20T04:27:27;100152.09;;;6.66;81.39
23427;BME280;41148;45.420;10.952;2022-11-20T04:29:54;100152.81;;;6.74;81.15
23427;BME280;41148;45.420;10.952;2022-11-20T04:32:21;100151.78;;;6.81;82.55
23427;BME280;41148;45.420;10.952;2022-11-20T04:34:49;100145.69;;;6.77;83.01
23427;BME280;41148;45.420;10.952;2022-11-20T04:37:16;100152.97;;;6.66;82.64
23427;BME280;41148;45.420;10.952;2022-11-20T04:39:44;100141.44;;;6.69;82.98
23427;BME280;41148;45.420;10.952;2022-11-20T04:42:11;100146.84;;;6.63;83.22
23427;BME280;41148;45.420;10.952;2022-11-20T04:44:57;100150.50;;;6.58;83.39
23427;BME280;41148;45.420;10.952;2022-11-20T04:47:25;100156.00;;;6.46;82.69
23427;BME280;41148;45.420;10.952;2022-11-20T04:49:52;100152.88;;;6.27;84.18
23427;BME280;41148;45.420;10.952;2022-11-20T04:52:20;100146.00;;;6.16;84.13
23427;BME280;41148;45.420;10.952;2022-11-20T04:54:47;100154.78;;;6.19;84.32
23427;BME280;41148;45.420;10.952;2022-11-20T04:57:15;100155.47;;;6.29;84.41
23427;BME280;41148;45.420;10.952;2022-11-20T04:59:42;100147.44;;;6.34;83.80
23427;BME280;41148;45.420;10.952;2022-11-20T05:02:10;100153.81;;;6.23;84.15
23427;BME280;41148;45.420;10.952;2022-11-20T05:04:38;100163.69;;;6.14;84.41
23427;BME280;41148;45.420;10.952;2022-11-20T05:07:05;100142.56;;;6.12;84.97
23427;BME280;41148;45.420;10.952;2022-11-20T05:09:33;100155.69;;;6.18;85.30
23427;BME280;41148;45.420;10.952;2022-11-20T05:12:00;100156.69;;;6.11;85.26
23427;BME280;41148;45.420;10.952;2022-11-20T05:14:27;100168.38;;;5.99;85.80
23427;BME280;41148;45.420;10.952;2022-11-20T05:16:55;100177.22;;;5.95;86.12
23427;BME280;41148;45.420;10.952;2022-11-20T05:19:22;100168.69;;;5.78;86.29
23427;BME280;41148;45.420;10.952;2022-11-20T05:21:50;100170.47;;;5.76;86.86
23427;BME280;41148;45.420;10.952;2022-11-20T05:24:17;100181.75;;;5.89;86.50
23427;BME280;41148;45.420;10.952;2022-11-20T05:26:45;100172.16;;;5.82;87.07
23427;BME280;41148;45.420;10.952;2022-11-20T05:29:12;100181.09;;;5.74;86.99
23427;BME280;41148;45.420;10.952;2022-11-20T05:31:40;100169.63;;;5.74;86.97
23427;BME280;41148;45.420;10.952;2022-11-20T05:34:08;100171.66;;;5.58;88.40
23427;BME280;41148;45.420;10.952;2022-11-20T05:36:35;100189.81;;;5.78;87.62
23427;BME280;41148;45.420;10.952;2022-11-20T05:39:03;100189.66;;;5.89;86.74
23427;BME280;41148;45.420;10.952;2022-11-20T05:41:33;100196.16;;;5.69;86.31
23427;BME280;41148;45.420;10.952;2022-11-20T05:44:00;100188.38;;;5.59;86.86
23427;BME280;41148;45.420;10.952;2022-11-20T05:46:27;100199.03;;;5.54;86.96
23427;BME280;41148;45.420;10.952;2022-11-20T05:48:57;100207.16;;;5.39;87.66
23427;BME280;41148;45.420;10.952;2022-11-20T05:51:24;100207.69;;;5.64;86.93
23427;BME280;41148;45.420;10.952;2022-11-20T05:53:53;100204.47;;;5.43;87.44
23427;BME280;41148;45.420;10.952;2022-11-20T05:56:21;100213.13;;;5.53;87.36
23427;BME280;41148;45.420;10.952;2022-11-20T05:58:49;100207.75;;;5.61;86.58
23427;BME280;41148;45.420;10.952;2022-11-20T06:01:20;100206.00;;;5.58;85.73
23427;BME280;41148;45.420;10.952;2022-11-20T06:03:48;100222.75;;;5.57;85.69
23427;BME280;41148;45.420;10.952;2022-11-20T06:06:19;100214.19;;;5.40;85.57
23427;BME280;41148;45.420;10.952;2022-11-20T06:08:47;100219.47;;;5.40;86.77
23427;BME280;41148;45.420;10.952;2022-11-20T06:11:15;100229.31;;;5.32;86.67
23427;BME280;41148;45.420;10.952;2022-11-20T06:13:43;100214.31;;;5.32;86.14
23427;BME280;41148;45.420;10.952;2022-11-20T06:16:12;100220.28;;;5.46;85.99
23427;BME280;41148;45.420;10.952;2022-11-20T06:18:41;100235.31;;;5.43;85.46
23427;BME280;41148;45.420;10.952;2022-11-20T06:21:17;100235.72;;;5.11;86.59
23427;BME280;41148;45.420;10.952;2022-11-20T06:23:45;100246.63;;;4.85;88.61
23427;BME280;41148;45.420;10.952;2022-11-20T06:26:19;100229.78;;;4.92;88.58
23427;BME280;41148;45.420;10.952;2022-11-20T06:28:47;100241.75;;;5.21;87.80
23427;BME280;41148;45.420;10.952;2022-11-20T06:31:17;100237.19;;;5.35;87.17
23427;BME280;41148;45.420;10.952;2022-11-20T06:33:45;100249.50;;;5.36;87.11
23427;BME280;41148;45.420;10.952;2022-11-20T06:36:14;100255.69;;;5.33;87.21
23427;BME280;41148;45.420;10.952;2022-11-20T06:38:42;100255.81;;;5.24;87.16
23427;BME280;41148;45.420;10.952;2022-11-20T06:41:13;100253.81;;;5.41;86.66
23427;BME280;41148;45.420;10.952;2022-11-20T06:43:40;100244.16;;;5.39;85.53
23427;BME280;41148;45.420;10.952;2022-11-20T06:46:10;100254.75;;;5.37;85.39
23427;BME280;41148;45.420;10.952;2022-11-20T06:48:38;100246.88;;;5.34;85.83
23427;BME280;41148;45.420;10.952;2022-11-20T06:51:09;100263.53;;;5.38;84.78
23427;BME280;41148;45.420;10.952;2022-11-20T06:53:37;100258.28;;;5.36;85.01
23427;BME280;41148;45.420;10.952;2022-11-20T06:56:05;100260.16;;;5.28;84.70
23427;BME280;41148;45.420;10.952;2022-11-20T06:58:34;100260.16;;;5.28;84.78
23427;BME280;41148;45.420;10.952;2022-11-20T07:01:05;100268.16;;;5.24;84.35
23427;BME280;41148;45.420;10.952;2022-11-20T07:03:34;100284.78;;;5.32;83.79
23427;BME280;41148;45.420;10.952;2022-11-20T07:06:02;100285.75;;;5.25;84.22
23427;BME280;41148;45.420;10.952;2022-11-20T07:08:30;100278.63;;;5.30;83.42
23427;BME280;41148;45.420;10.952;2022-11-20T07:10:59;100290.81;;;5.41;82.82
23427;BME280;41148;45.420;10.952;2022-11-20T07:13:28;100294.50;;;5.27;83.98
23427;BME280;41148;45.420;10.952;2022-11-20T07:15:59;100298.81;;;5.35;82.69
23427;BME280;41148;45.420;10.952;2022-11-20T07:18:27;100301.53;;;5.31;83.26
23427;BME280;41148;45.420;10.952;2022-11-20T07:20:55;100298.81;;;5.34;84.52
23427;BME280;41148;45.420;10.952;2022-11-20T07:23:22;100306.78;;;5.29;84.25
23427;BME280;41148;45.420;10.952;2022-11-20T07:25:49;100300.56;;;5.36;83.25
23427;BME280;41148;45.420;10.952;2022-11-20T07:28:17;100304.16;;;5.29;83.60
23427;BME280;41148;45.420;10.952;2022-11-20T07:30:52;100311.06;;;5.42;84.00
23427;BME280;41148;45.420;10.952;2022-11-20T07:33:20;100315.34;;;5.50;83.37
23427;BME280;41148;45.420;10.952;2022-11-20T07:35:48;100313.44;;;5.61;82.33
23427;BME280;41148;45.420;10.952;2022-11-20T07:38:16;100302.88;;;5.59;81.98
23427;BME280;41148;45.420;10.952;2022-11-20T07:40:44;100298.34;;;5.70;81.03
23427;BME280;41148;45.420;10.952;2022-11-20T07:43:11;100312.97;;;5.96;80.79
23427;BME280;41148;45.420;10.952;2022-11-20T07:45:39;100307.63;;;5.97;79.65
23427;BME280;41148;45.420;10.952;2022-11-20T07:48:06;100302.22;;;6.08;79.74
23427;BME280;41148;45.420;10.952;2022-11-20T07:50:34;100312.47;;;6.28;78.38
23427;BME280;41148;45.420;10.952;2022-11-20T07:53:03;100314.03;;;6.40;77.69
23427;BME280;41148;45.420;10.952;2022-11-20T07:55:32;100306.75;;;6.52;77.16
23427;BME280;41148;45.420;10.952;2022-11-20T07:57:59;100310.13;;;6.60;76.54
23427;BME280;41148;45.420;10.952;2022-11-20T08:00:27;100309.91;;;6.73;77.19
23427;BME280;41148;45.420;10.952;2022-11-20T08:02:54;100321.06;;;6.90;75.83
23427;BME280;41148;45.420;10.952;2022-11-20T08:05:22;100326.22;;;6.98;76.02
23427;BME280;41148;45.420;10.952;2022-11-20T08:07:49;100317.44;;;6.94;75.58
23427;BME280;41148;45.420;10.952;2022-11-20T08:10:17;100304.03;;;7.05;75.65
23427;BME280;41148;45.420;10.952;2022-11-20T08:12:49;100314.25;;;7.22;75.21
23427;BME280;41148;45.420;10.952;2022-11-20T08:15:36;100320.19;;;7.34;74.74
23427;BME280;41148;45.420;10.952;2022-11-20T08:18:09;100330.56;;;7.45;75.27
23427;BME280;41148;45.420;10.952;2022-11-20T08:21:16;100326.88;;;7.54;74.31
23427;BME280;41148;45.420;10.952;2022-11-20T08:23:43;100328.66;;;7.53;73.20
23427;BME280;41148;45.420;10.952;2022-11-20T08:26:11;100330.00;;;7.71;72.83
23427;BME280;41148;45.420;10.952;2022-11-20T08:28:38;100333.41;;;7.78;72.04
23427;BME280;41148;45.420;10.952;2022-11-20T08:31:06;100330.53;;;7.87;70.92
23427;BME280;41148;45.420;10.952;2022-11-20T08:33:33;100329.63;;;7.88;70.56
23427;BME280;41148;45.420;10.952;2022-11-20T08:36:02;100328.50;;;7.98;70.33
23427;BME280;41148;45.420;10.952;2022-11-20T08:38:31;100322.13;;;8.07;70.27
23427;BME280;41148;45.420;10.952;2022-11-20T08:40:59;100332.25;;;8.26;69.85
23427;BME280;41148;45.420;10.952;2022-11-20T08:43:46;100331.97;;;8.40;68.59
23427;BME280;41148;45.420;10.952;2022-11-20T08:46:13;100338.44;;;8.64;68.18
23427;BME280;41148;45.420;10.952;2022-11-20T08:48:41;100330.09;;;8.78;66.94
23427;BME280;41148;45.420;10.952;2022-11-20T08:51:09;100343.28;;;8.82;65.92
23427;BME280;41148;45.420;10.952;2022-11-20T08:53:38;100337.69;;;8.93;65.99
23427;BME280;41148;45.420;10.952;2022-11-20T08:56:05;100346.19;;;9.06;65.26
23427;BME280;41148;45.420;10.952;2022-11-20T08:58:33;100350.56;;;9.07;64.49
23427;BME280;41148;45.420;10.952;2022-11-20T09:01:22;100354.72;;;9.18;65.13
23427;BME280;41148;45.420;10.952;2022-11-20T09:03:50;100351.75;;;9.29;65.26
23427;BME280;41148;45.420;10.952;2022-11-20T09:06:18;100346.91;;;9.43;64.28
23427;BME280;41148;45.420;10.952;2022-11-20T09:08:45;100347.28;;;9.61;64.32
23427;BME280;41148;45.420;10.952;2022-11-20T09:11:12;100351.47;;;9.69;64.56
23427;BME280;41148;45.420;10.952;2022-11-20T09:13:40;100349.56;;;9.73;64.03
23427;BME280;41148;45.420;10.952;2022-11-20T09:16:08;100356.47;;;9.80;63.17
23427;BME280;41148;45.420;10.952;2022-11-20T09:18:36;100350.00;;;9.89;62.96
23427;BME280;41148;45.420;10.952;2022-11-20T09:21:06;100360.63;;;9.89;62.04
23427;BME280;41148;45.420;10.952;2022-11-20T09:23:37;100355.09;;;9.96;62.22
23427;BME280;41148;45.420;10.952;2022-11-20T09:26:08;100360.13;;;10.06;60.22
23427;BME280;41148;45.420;10.952;2022-11-20T09:28:36;100359.06;;;10.11;59.77
23427;BME280;41148;45.420;10.952;2022-11-20T09:31:08;100361.31;;;10.25;57.29
23427;BME280;41148;45.420;10.952;2022-11-20T09:33:35;100365.50;;;10.34;57.55
23427;BME280;41148;45.420;10.952;2022-11-20T09:36:09;100364.50;;;10.36;56.85
23427;BME280;41148;45.420;10.952;2022-11-20T09:38:37;100352.19;;;10.34;56.48
23427;BME280;41148;45.420;10.952;2022-11-20T09:41:06;100372.22;;;10.45;57.73
23427;BME280;41148;45.420;10.952;2022-11-20T09:46:14;100369.31;;;10.53;57.30
23427;BME280;41148;45.420;10.952;2022-11-20T09:52:07;100360.53;;;10.76;58.59
23427;BME280;41148;45.420;10.952;2022-11-20T09:54:36;100351.91;;;10.68;59.56
23427;BME280;41148;45.420;10.952;2022-11-20T09:57:23;100350.03;;;10.71;60.46
23427;BME280;41148;45.420;10.952;2022-11-20T09:59:56;100345.09;;;10.85;61.25
23427;BME280;41148;45.420;10.952;2022-11-20T10:02:37;100342.38;;;10.87;62.03
23427;BME280;41148;45.420;10.952;2022-11-20T10:10:35;100344.78;;;11.20;62.98
23427;BME280;41148;45.420;10.952;2022-11-20T10:13:40;100335.03;;;11.18;63.67
23427;BME280;41148;45.420;10.952;2022-11-20T10:30:06;100340.41;;;11.65;64.61
23427;BME280;41148;45.420;10.952;2022-11-20T10:32:38;100336.06;;;11.63;63.43
23427;BME280;41148;45.420;10.952;2022-11-20T10:35:18;100334.25;;;11.88;63.46
23427;BME280;41148;45.420;10.952;2022-11-20T10:38:00;100344.22;;;11.83;63.47
23427;BME280;41148;45.420;10.952;2022-11-20T10:43:12;100343.13;;;11.89;62.80
23427;BME280;41148;45.420;10.952;2022-11-20T10:45:47;100332.19;;;11.95;63.23
23427;BME280;41148;45.420;10.952;2022-11-20T10:48:22;100327.91;;;12.13;62.59
23427;BME280;41148;45.420;10.952;2022-11-20T10:50:59;100322.44;;;12.16;62.10
23427;BME280;41148;45.420;10.952;2022-11-20T10:56:35;100311.81;;;12.14;61.66
23427;BME280;41148;45.420;10.952;2022-11-20T11:02:00;100305.13;;;12.04;63.01
23427;BME280;41148;45.420;10.952;2022-11-20T11:04:37;100308.19;;;12.17;62.92
23427;BME280;41148;45.420;10.952;2022-11-20T11:07:16;100308.13;;;12.18;62.57
23427;BME280;41148;45.420;10.952;2022-11-20T11:09:55;100315.50;;;12.12;63.09
23427;BME280;41148;45.420;10.952;2022-11-20T11:12:28;100311.53;;;12.22;63.45
23427;BME280;41148;45.420;10.952;2022-11-20T11:14:57;100303.69;;;12.39;62.95
23427;BME280;41148;45.420;10.952;2022-11-20T11:17:29;100300.47;;;12.31;63.27
23427;BME280;41148;45.420;10.952;2022-11-20T11:20:02;100308.97;;;12.41;62.90
23427;BME280;41148;45.420;10.952;2022-11-20T11:22:32;100296.03;;;12.52;62.14
23427;BME280;41148;45.420;10.952;2022-11-20T11:25:00;100295.28;;;12.48;61.81
23427;BME280;41148;45.420;10.952;2022-11-20T11:27:27;100294.56;;;12.23;62.33
23427;BME280;41148;45.420;10.952;2022-11-20T11:30:10;100291.50;;;12.32;62.81
23427;BME280;41148;45.420;10.952;2022-11-20T11:32:39;100294.28;;;12.51;62.02
23427;BME280;41148;45.420;10.952;2022-11-20T11:35:22;100283.91;;;12.65;61.34
23427;BME280;41148;45.420;10.952;2022-11-20T11:37:51;100293.97;;;12.58;61.35
23427;BME280;41148;45.420;10.952;2022-11-20T11:40:21;100284.78;;;12.66;61.92
23427;BME280;41148;45.420;10.952;2022-11-20T11:42:57;100288.69;;;12.57;62.46
23427;BME280;41148;45.420;10.952;2022-11-20T11:45:25;100284.88;;;12.63;63.70
23427;BME280;41148;45.420;10.952;2022-11-20T11:47:55;100280.69;;;12.57;63.76
23427;BME280;41148;45.420;10.952;2022-11-20T11:50:28;100274.94;;;12.46;66.11
23427;BME280;41148;45.420;10.952;2022-11-20T11:53:18;100282.97;;;12.44;68.44
23427;BME280;41148;45.420;10.952;2022-11-20T11:56:07;100276.44;;;12.51;69.19
23427;BME280;41148;45.420;10.952;2022-11-20T11:58:45;100268.72;;;12.66;69.84
23427;BME280;41148;45.420;10.952;2022-11-20T12:01:31;100273.25;;;12.64;70.20
23427;BME280;41148;45.420;10.952;2022-11-20T12:07:18;100275.91;;;12.64;70.29
23427;BME280;41148;45.420;10.952;2022-11-20T12:13:17;100272.38;;;12.43;70.97
23427;BME280;41148;45.420;10.952;2022-11-20T12:15:48;100269.69;;;12.43;71.16
23427;BME280;41148;45.420;10.952;2022-11-20T12:18:18;100260.56;;;12.48;71.20
23427;BME280;41148;45.420;10.952;2022-11-20T12:39:49;100239.91;;;12.52;69.72
23427;BME280;41148;45.420;10.952;2022-11-20T12:48:38;100249.66;;;12.53;68.02
23427;BME280;41148;45.420;10.952;2022-11-20T12:51:36;100246.34;;;12.48;68.09
23427;BME280;41148;45.420;10.952;2022-11-20T12:57:43;100233.84;;;12.48;67.85
23427;BME280;41148;45.420;10.952;2022-11-20T13:00:14;100241.84;;;12.48;67.76
23427;BME280;41148;45.420;10.952;2022-11-20T13:05:47;100247.94;;;12.52;67.28
23427;BME280;41148;45.420;10.952;2022-11-20T13:08:30;100244.25;;;12.54;67.34
23427;BME280;41148;45.420;10.952;2022-11-20T13:16:41;100242.88;;;12.46;65.24
23427;BME280;41148;45.420;10.952;2022-11-20T13:19:14;100239.66;;;12.58;64.58
23427;BME280;41148;45.420;10.952;2022-11-20T13:21:47;100223.56;;;12.59;63.99
23427;BME280;41148;45.420;10.952;2022-11-20T13:24:21;100234.16;;;12.61;63.28
23427;BME280;41148;45.420;10.952;2022-11-20T13:29:44;100234.03;;;12.44;62.76
23427;BME280;41148;45.420;10.952;2022-11-20T13:32:17;100229.22;;;12.31;63.60
23427;BME280;41148;45.420;10.952;2022-11-20T13:34:55;100222.34;;;12.26;63.87
23427;BME280;41148;45.420;10.952;2022-11-20T13:37:35;100218.34;;;12.36;63.69
23427;BME280;41148;45.420;10.952;2022-11-20T13:45:27;100204.56;;;12.25;64.48
23427;BME280;41148;45.420;10.952;2022-11-20T13:47:56;100204.84;;;12.19;64.08
23427;BME280;41148;45.420;10.952;2022-11-20T13:50:40;100211.97;;;12.18;64.20
23427;BME280;41148;45.420;10.952;2022-11-20T13:56:04;100218.19;;;12.19;63.75
23427;BME280;41148;45.420;10.952;2022-11-20T14:01:32;100217.88;;;12.26;63.55
23427;BME280;41148;45.420;10.952;2022-11-20T14:04:09;100222.72;;;12.17;64.54
23427;BME280;41148;45.420;10.952;2022-11-20T14:06:44;100220.97;;;12.16;64.38
23427;BME280;41148;45.420;10.952;2022-11-20T14:09:13;100228.50;;;12.06;63.88
23427;BME280;41148;45.420;10.952;2022-11-20T14:11:52;100221.56;;;12.02;64.28
23427;BME280;41148;45.420;10.952;2022-11-20T14:14:22;100223.50;;;11.98;65.01
23427;BME280;41148;45.420;10.952;2022-11-20T14:16:50;100233.22;;;11.99;64.31
23427;BME280;41148;45.420;10.952;2022-11-20T14:21:51;100217.72;;;11.87;64.89
23427;BME280;41148;45.420;10.952;2022-11-20T14:24:21;100220.31;;;11.89;65.35
23427;BME280;41148;45.420;10.952;2022-11-20T14:26:51;100220.41;;;11.87;65.80
23427;BME280;41148;45.420;10.952;2022-11-20T14:29:21;100221.31;;;11.86;65.71
23427;BME280;41148;45.420;10.952;2022-11-20T14:31:52;100214.34;;;11.82;65.85
23427;BME280;41148;45.420;10.952;2022-11-20T14:34:24;100209.34;;;11.73;66.02
23427;BME280;41148;45.420;10.952;2022-11-20T14:36:58;100207.00;;;11.65;65.98
23427;BME280;41148;45.420;10.952;2022-11-20T14:39:37;100218.59;;;11.64;66.51
23427;BME280;41148;45.420;10.952;2022-11-20T14:42:16;100217.66;;;11.65;66.88